createdAt,value
2022-11-24T00:00:02.151Z,65.60
2022-11-24T00:00:15.702Z,67.57
2022-11-24T00:00:36.581Z,67.13
2022-11-24T00:01:12.559Z,66.85
2022-11-24T00:01:27.040Z,65.40
2022-11-24T00:01:39.824Z,64.25
2022-11-24T00:01:52.695Z,65.50
2022-11-24T00:02:06.703Z,67.05
2022-11-24T00:02:19.649Z,65.25
2022-11-24T00:02:32.652Z,66.55
2022-11-24T00:02:45.628Z,66.20
2022-11-24T00:02:58.477Z,63.83
2022-11-24T00:03:11.513Z,67.63
2022-11-24T00:03:24.608Z,70.82
2022-11-24T00:03:39.197Z,70.43
2022-11-24T00:03:56.607Z,68.78
2022-11-24T00:04:12.123Z,67.47
2022-11-24T00:04:24.992Z,65.28
2022-11-24T00:04:37.785Z,64.40
2022-11-24T00:04:50.631Z,67.32
2022-11-24T00:05:04.495Z,71.40
2022-11-24T00:05:17.642Z,72.22
2022-11-24T00:05:30.362Z,73.43
2022-11-24T00:05:43.176Z,73.78
2022-11-24T00:05:55.928Z,73.85
2022-11-24T00:06:11.111Z,73.60
2022-11-24T00:06:25.314Z,73.28
2022-11-24T00:06:38.359Z,73.35
2022-11-24T00:06:51.114Z,73.10
2022-11-24T00:07:03.858Z,72.32
2022-11-24T00:07:16.705Z,71.68
2022-11-24T00:07:29.618Z,72.60
2022-11-24T00:07:42.721Z,73.57
2022-11-24T00:07:55.609Z,71.90
2022-11-24T00:08:09.234Z,71.10
2022-11-24T00:08:23.708Z,73.60
2022-11-24T00:08:37.471Z,74.70
2022-11-24T00:08:50.761Z,73.55
2022-11-24T00:09:05.153Z,75.00
2022-11-24T00:09:18.183Z,75.70
2022-11-24T00:09:30.938Z,75.32
2022-11-24T00:09:44.785Z,76.15
2022-11-24T00:09:57.613Z,76.80
2022-11-24T00:10:10.672Z,76.68
2022-11-24T00:10:23.582Z,75.65
2022-11-24T00:10:37.813Z,76.85
2022-11-24T00:10:50.528Z,73.65
2022-11-24T00:11:05.564Z,70.45
2022-11-24T00:11:22.240Z,72.70
2022-11-24T00:11:36.802Z,71.82
2022-11-24T00:11:49.600Z,66.57
2022-11-24T00:12:03.142Z,66.97
2022-11-24T00:12:15.909Z,69.55
2022-11-24T00:12:28.746Z,67.85
2022-11-24T00:12:41.668Z,67.18
2022-11-24T00:12:54.490Z,67.63
2022-11-24T00:13:08.523Z,68.40
2022-11-24T00:13:21.366Z,71.25
2022-11-24T00:13:34.841Z,69.95
2022-11-24T00:13:48.055Z,67.18
2022-11-24T00:14:02.071Z,68.38
2022-11-24T00:14:14.899Z,69.10
2022-11-24T00:14:28.956Z,68.10
2022-11-24T00:14:41.857Z,69.68
2022-11-24T00:14:54.585Z,69.15
2022-11-24T00:15:08.107Z,66.38
2022-11-24T00:15:21.862Z,67.03
2022-11-24T00:15:34.599Z,69.18
2022-11-24T00:15:47.405Z,70.20
2022-11-24T00:16:12.059Z,69.70
2022-11-24T00:16:27.847Z,69.30
2022-11-24T00:16:40.888Z,67.10
2022-11-24T00:16:54.104Z,68.45
2022-11-24T00:17:07.225Z,69.10
2022-11-24T00:17:20.045Z,66.40
2022-11-24T00:17:33.150Z,68.10
2022-11-24T00:17:45.892Z,71.18
2022-11-24T00:17:58.688Z,70.07
2022-11-24T00:18:12.502Z,66.38
2022-11-24T00:18:25.289Z,67.15
2022-11-24T00:18:38.674Z,67.05
2022-11-24T00:18:53.365Z,68.95
2022-11-24T00:19:09.306Z,72.88
2022-11-24T00:19:23.275Z,70.20
2022-11-24T00:19:36.126Z,66.97
2022-11-24T00:19:48.909Z,67.07
2022-11-24T00:20:01.847Z,67.90
2022-11-24T00:20:15.000Z,68.93
2022-11-24T00:20:27.805Z,68.30
2022-11-24T00:20:40.578Z,69.22
2022-11-24T00:20:53.682Z,69.97
2022-11-24T00:21:07.206Z,72.30
2022-11-24T00:21:22.466Z,72.35
2022-11-24T00:21:37.073Z,70.35
2022-11-24T00:21:49.866Z,68.75
2022-11-24T00:22:02.762Z,66.45
2022-11-24T00:22:15.552Z,65.85
2022-11-24T00:22:28.268Z,65.80
2022-11-24T00:22:42.308Z,64.63
2022-11-24T00:22:56.073Z,64.72
2022-11-24T00:23:08.853Z,65.30
2022-11-24T00:23:21.812Z,62.55
2022-11-24T00:23:35.130Z,61.65
2022-11-24T00:23:49.308Z,64.82
2022-11-24T00:24:02.633Z,66.00
2022-11-24T00:24:16.559Z,64.40
2022-11-24T00:24:29.289Z,64.65
2022-11-24T00:24:42.017Z,64.90
2022-11-24T00:24:55.057Z,64.68
2022-11-24T00:25:08.335Z,65.10
2022-11-24T00:25:21.109Z,65.38
2022-11-24T00:25:33.861Z,66.72
2022-11-24T00:25:48.122Z,67.20
2022-11-24T00:26:06.877Z,67.97
2022-11-24T00:26:21.922Z,65.82
2022-11-24T00:26:37.509Z,64.68
2022-11-24T00:26:51.452Z,64.35
2022-11-24T00:27:04.411Z,64.85
2022-11-24T00:27:17.387Z,65.57
2022-11-24T00:27:30.131Z,67.82
2022-11-24T00:27:43.097Z,68.13
2022-11-24T00:27:55.870Z,65.57
2022-11-24T00:28:08.630Z,63.58
2022-11-24T00:28:21.401Z,64.95
2022-11-24T00:28:34.892Z,67.25
2022-11-24T00:28:49.949Z,69.00
2022-11-24T00:29:05.278Z,68.95
2022-11-24T00:29:18.301Z,67.22
2022-11-24T00:29:31.158Z,67.25
2022-11-24T00:29:44.058Z,66.30
2022-11-24T00:29:57.834Z,68.40
2022-11-24T00:30:12.494Z,70.90
2022-11-24T00:30:25.706Z,69.22
2022-11-24T00:30:38.624Z,68.53
2022-11-24T00:30:51.492Z,67.60
2022-11-24T00:31:08.082Z,68.00
2022-11-24T00:31:23.793Z,66.75
2022-11-24T00:31:38.127Z,65.13
2022-11-24T00:31:51.993Z,67.13
2022-11-24T00:32:06.675Z,69.50
2022-11-24T00:32:19.467Z,66.50
2022-11-24T00:32:32.233Z,64.32
2022-11-24T00:32:44.987Z,65.65
2022-11-24T00:32:57.787Z,66.20
2022-11-24T00:33:10.618Z,64.13
2022-11-24T00:33:23.361Z,63.95
2022-11-24T00:33:37.080Z,63.38
2022-11-24T00:33:52.366Z,63.63
2022-11-24T00:34:07.220Z,61.97
2022-11-24T00:34:20.035Z,63.35
2022-11-24T00:34:33.423Z,66.35
2022-11-24T00:34:47.445Z,66.68
2022-11-24T00:35:00.169Z,67.43
2022-11-24T00:35:12.976Z,66.32
2022-11-24T00:35:26.743Z,66.72
2022-11-24T00:35:39.585Z,67.03
2022-11-24T00:35:55.750Z,64.50
2022-11-24T00:36:08.849Z,64.93
2022-11-24T00:36:23.696Z,67.50
2022-11-24T00:36:38.291Z,67.53
2022-11-24T00:36:51.030Z,65.07
2022-11-24T00:37:03.851Z,64.30
2022-11-24T00:37:16.562Z,63.42
2022-11-24T00:37:29.403Z,64.10
2022-11-24T00:37:42.246Z,66.75
2022-11-24T00:37:56.246Z,63.58
2022-11-24T00:38:10.038Z,64.32
2022-11-24T00:38:22.819Z,66.35
2022-11-24T00:38:35.635Z,65.10
2022-11-24T00:38:48.838Z,66.40
2022-11-24T00:39:03.669Z,68.22
2022-11-24T00:39:17.364Z,70.53
2022-11-24T00:39:30.390Z,70.40
2022-11-24T00:39:44.122Z,67.07
2022-11-24T00:39:56.911Z,66.93
2022-11-24T00:40:10.207Z,68.47
2022-11-24T00:40:23.041Z,68.90
2022-11-24T00:40:35.962Z,68.65
2022-11-24T00:40:50.195Z,68.00
2022-11-24T00:41:02.959Z,68.55
2022-11-24T00:41:15.751Z,68.70
2022-11-24T00:41:30.645Z,70.05
2022-11-24T00:41:44.007Z,73.93
2022-11-24T00:41:56.837Z,72.57
2022-11-24T00:42:09.565Z,69.85
2022-11-24T00:42:22.257Z,69.45
2022-11-24T00:42:34.966Z,69.13
2022-11-24T00:42:48.157Z,68.65
2022-11-24T00:43:00.900Z,70.72
2022-11-24T00:43:13.644Z,70.95
2022-11-24T00:43:27.437Z,70.20
2022-11-24T00:43:40.348Z,72.97
2022-11-24T00:43:53.700Z,76.05
2022-11-24T00:44:07.001Z,74.90
2022-11-24T00:44:19.767Z,74.63
2022-11-24T00:44:32.592Z,75.97
2022-11-24T00:44:46.482Z,77.10
2022-11-24T00:44:59.263Z,72.95
2022-11-24T00:45:14.137Z,71.43
2022-11-24T00:45:27.170Z,73.63
2022-11-24T00:45:40.006Z,72.78
2022-11-24T00:45:53.039Z,73.82
2022-11-24T00:46:06.414Z,74.00
2022-11-24T00:46:21.105Z,72.18
2022-11-24T00:46:34.833Z,71.03
2022-11-24T00:46:47.870Z,71.00
2022-11-24T00:47:00.891Z,71.30
2022-11-24T00:47:14.027Z,73.50
2022-11-24T00:47:28.867Z,73.98
2022-11-24T00:47:41.558Z,71.05
2022-11-24T00:47:55.307Z,69.82
2022-11-24T00:48:08.126Z,69.32
2022-11-24T00:48:21.074Z,71.03
2022-11-24T00:48:34.152Z,72.00
2022-11-24T00:48:46.953Z,73.47
2022-11-24T00:49:00.526Z,71.85
2022-11-24T00:49:14.260Z,69.75
2022-11-24T00:49:27.411Z,67.43
2022-11-24T00:49:40.091Z,68.47
2022-11-24T00:49:52.854Z,69.60
2022-11-24T00:50:06.536Z,71.68
2022-11-24T00:50:20.190Z,71.95
2022-11-24T00:50:32.959Z,71.22
2022-11-24T00:50:45.718Z,68.75
2022-11-24T00:51:00.951Z,65.55
2022-11-24T00:51:15.896Z,68.60
2022-11-24T00:51:30.494Z,69.35
2022-11-24T00:51:43.296Z,68.82
2022-11-24T00:51:56.013Z,67.07
2022-11-24T00:52:09.784Z,66.90
2022-11-24T00:52:22.565Z,67.57
2022-11-24T00:52:35.270Z,67.88
2022-11-24T00:52:48.341Z,68.75
2022-11-24T00:53:01.144Z,70.00
2022-11-24T00:53:13.827Z,71.80
2022-11-24T00:53:26.972Z,71.55
2022-11-24T00:53:40.063Z,69.55
2022-11-24T00:53:54.408Z,68.18
2022-11-24T00:54:07.178Z,68.50
2022-11-24T00:54:20.042Z,68.94
2022-11-24T00:54:32.977Z,68.25
2022-11-24T00:54:45.796Z,67.78
2022-11-24T00:54:58.581Z,67.72
2022-11-24T00:55:11.308Z,68.10
2022-11-24T00:55:25.112Z,70.18
2022-11-24T00:55:37.864Z,70.13
2022-11-24T00:55:52.948Z,69.28
2022-11-24T00:56:06.579Z,67.13
2022-11-24T00:56:19.506Z,66.68
2022-11-24T00:56:32.509Z,67.60
2022-11-24T00:56:46.276Z,70.43
2022-11-24T00:56:59.055Z,71.47
2022-11-24T00:57:12.121Z,69.57
2022-11-24T00:57:24.997Z,69.50
2022-11-24T00:57:37.783Z,69.72
2022-11-24T00:57:50.648Z,71.45
2022-11-24T00:58:03.434Z,71.68
2022-11-24T00:58:16.216Z,66.78
2022-11-24T00:58:29.940Z,66.90
2022-11-24T00:58:42.912Z,73.05
2022-11-24T00:58:56.771Z,76.90
2022-11-24T00:59:09.942Z,76.95
2022-11-24T00:59:22.676Z,75.38
2022-11-24T00:59:36.429Z,76.60
2022-11-24T00:59:49.150Z,73.82
2022-11-24T01:00:01.948Z,74.43
2022-11-24T01:00:15.712Z,77.32
2022-11-24T01:00:28.425Z,78.03
2022-11-24T01:00:41.184Z,79.32
2022-11-24T01:00:53.925Z,80.78
2022-11-24T01:01:10.602Z,83.55
2022-11-24T01:01:25.346Z,82.30
2022-11-24T01:01:39.104Z,83.10
2022-11-24T01:01:52.186Z,83.45
2022-11-24T01:02:04.994Z,81.07
2022-11-24T01:02:17.849Z,80.82
2022-11-24T01:02:30.682Z,83.53
2022-11-24T01:02:43.638Z,84.32
2022-11-24T01:02:57.556Z,86.20
2022-11-24T01:03:10.751Z,87.70
2022-11-24T01:03:23.441Z,88.10
2022-11-24T01:03:36.337Z,87.18
2022-11-24T01:03:49.282Z,87.85
2022-11-24T01:04:02.301Z,89.53
2022-11-24T01:04:16.267Z,87.50
2022-11-24T01:04:29.031Z,88.43
2022-11-24T01:04:41.822Z,88.85
2022-11-24T01:04:54.869Z,88.15
2022-11-24T01:05:08.464Z,85.53
2022-11-24T01:05:21.269Z,84.00
2022-11-24T01:05:36.668Z,85.32
2022-11-24T01:05:50.555Z,84.78
2022-11-24T01:06:04.882Z,79.60
2022-11-24T01:06:19.564Z,79.18
2022-11-24T01:06:32.896Z,80.05
2022-11-24T01:06:45.998Z,80.13
2022-11-24T01:06:59.777Z,82.95
2022-11-24T01:07:12.709Z,79.75
2022-11-24T01:07:25.543Z,77.57
2022-11-24T01:07:38.499Z,77.47
2022-11-24T01:07:51.256Z,82.53
2022-11-24T01:08:04.185Z,82.63
2022-11-24T01:08:17.369Z,80.63
2022-11-24T01:08:30.166Z,79.78
2022-11-24T01:08:44.602Z,81.47
2022-11-24T01:08:58.076Z,76.45
2022-11-24T01:09:11.503Z,75.57
2022-11-24T01:09:24.323Z,78.82
2022-11-24T01:09:37.901Z,77.97
2022-11-24T01:09:50.710Z,78.47
2022-11-24T01:10:05.182Z,80.40
2022-11-24T01:10:18.128Z,77.78
2022-11-24T01:10:31.995Z,73.88
2022-11-24T01:10:44.767Z,73.55
2022-11-24T01:11:09.015Z,75.25
2022-11-24T01:11:24.393Z,80.50
2022-11-24T01:11:52.073Z,78.35
2022-11-24T01:12:06.011Z,76.03
2022-11-24T01:12:18.784Z,75.57
2022-11-24T01:12:32.425Z,74.53
2022-11-24T01:12:45.130Z,75.32
2022-11-24T01:12:58.123Z,74.07
2022-11-24T01:13:12.703Z,74.97
2022-11-24T01:13:25.446Z,76.60
2022-11-24T01:13:38.838Z,76.63
2022-11-24T01:13:54.772Z,77.72
2022-11-24T01:14:07.552Z,76.03
2022-11-24T01:14:21.448Z,72.45
2022-11-24T01:14:34.412Z,70.57
2022-11-24T01:14:47.274Z,74.90
2022-11-24T01:15:00.035Z,77.07
2022-11-24T01:15:12.777Z,76.53
2022-11-24T01:15:26.640Z,71.65
2022-11-24T01:15:40.480Z,73.00
2022-11-24T01:15:53.383Z,72.55
2022-11-24T01:16:06.644Z,70.38
2022-11-24T01:16:22.569Z,74.38
2022-11-24T01:16:35.793Z,75.72
2022-11-24T01:16:50.014Z,76.13
2022-11-24T01:17:02.717Z,77.35
2022-11-24T01:17:15.507Z,74.22
2022-11-24T01:17:28.228Z,71.78
2022-11-24T01:17:41.007Z,72.97
2022-11-24T01:17:53.964Z,70.95
2022-11-24T01:18:08.297Z,73.15
2022-11-24T01:18:21.052Z,78.53
2022-11-24T01:18:34.088Z,77.22
2022-11-24T01:18:47.282Z,74.35
2022-11-24T01:19:00.755Z,76.20
2022-11-24T01:19:13.537Z,79.07
2022-11-24T01:19:26.336Z,78.65
2022-11-24T01:19:40.078Z,78.50
2022-11-24T01:19:53.164Z,74.93
2022-11-24T01:20:07.020Z,73.60
2022-11-24T01:20:19.776Z,74.18
2022-11-24T01:20:32.547Z,75.32
2022-11-24T01:20:45.358Z,76.78
2022-11-24T01:20:58.164Z,77.97
2022-11-24T01:21:11.003Z,80.03
2022-11-24T01:21:25.092Z,80.00
2022-11-24T01:21:37.881Z,78.72
2022-11-24T01:21:50.702Z,80.65
2022-11-24T01:22:03.456Z,80.22
2022-11-24T01:22:16.478Z,81.05
2022-11-24T01:22:29.661Z,82.07
2022-11-24T01:22:42.472Z,82.18
2022-11-24T01:22:56.176Z,81.82
2022-11-24T01:23:08.865Z,83.38
2022-11-24T01:23:21.612Z,80.68
2022-11-24T01:23:34.481Z,79.95
2022-11-24T01:23:47.225Z,79.45
2022-11-24T01:23:59.991Z,77.55
2022-11-24T01:24:14.247Z,78.65
2022-11-24T01:24:27.310Z,80.10
2022-11-24T01:24:40.107Z,79.15
2022-11-24T01:24:52.883Z,76.05
2022-11-24T01:25:06.427Z,77.35
2022-11-24T01:25:19.284Z,80.35
2022-11-24T01:25:32.078Z,78.50
2022-11-24T01:25:45.842Z,78.93
2022-11-24T01:25:58.620Z,81.70
2022-11-24T01:26:14.556Z,81.60
2022-11-24T01:26:27.269Z,80.13
2022-11-24T01:26:40.329Z,82.75
2022-11-24T01:26:53.023Z,85.88
2022-11-24T01:27:05.838Z,87.70
2022-11-24T01:27:19.562Z,84.90
2022-11-24T01:27:32.417Z,79.20
2022-11-24T01:27:45.252Z,80.18
2022-11-24T01:27:57.961Z,85.10
2022-11-24T01:28:10.746Z,87.10
2022-11-24T01:28:23.473Z,87.85
2022-11-24T01:28:37.029Z,90.80
2022-11-24T01:28:55.148Z,88.32
2022-11-24T01:29:08.497Z,87.40
2022-11-24T01:29:21.282Z,89.78
2022-11-24T01:29:34.166Z,89.32
2022-11-24T01:29:46.988Z,88.57
2022-11-24T01:29:59.725Z,87.25
2022-11-24T01:30:12.631Z,89.28
2022-11-24T01:30:25.400Z,90.13
2022-11-24T01:30:38.196Z,88.75
2022-11-24T01:30:58.687Z,91.15
2022-11-24T01:31:12.157Z,86.70
2022-11-24T01:31:26.064Z,86.78
2022-11-24T01:31:39.003Z,89.03
2022-11-24T01:31:52.908Z,87.50
2022-11-24T01:32:05.725Z,90.18
2022-11-24T01:32:18.588Z,91.10
2022-11-24T01:32:33.314Z,86.90
2022-11-24T01:32:46.054Z,85.85
2022-11-24T01:32:58.760Z,89.10
2022-11-24T01:33:11.477Z,94.22
2022-11-24T01:33:24.558Z,92.28
2022-11-24T01:33:38.771Z,88.85
2022-11-24T01:33:51.769Z,91.05
2022-11-24T01:34:04.531Z,91.43
2022-11-24T01:34:17.285Z,89.85
2022-11-24T01:34:30.276Z,90.60
2022-11-24T01:34:43.342Z,92.68
2022-11-24T01:34:57.467Z,91.95
2022-11-24T01:35:10.539Z,94.75
2022-11-24T01:35:23.321Z,96.80
2022-11-24T01:35:36.886Z,94.38
2022-11-24T01:35:49.630Z,87.43
2022-11-24T01:36:02.758Z,84.82
2022-11-24T01:36:16.652Z,87.47
2022-11-24T01:36:29.527Z,91.18
2022-11-24T01:36:42.292Z,93.40
2022-11-24T01:36:54.997Z,93.07
2022-11-24T01:37:07.742Z,92.47
2022-11-24T01:37:20.460Z,91.93
2022-11-24T01:37:33.445Z,92.50
2022-11-24T01:37:47.444Z,91.85
2022-11-24T01:38:00.328Z,94.03
2022-11-24T01:38:13.010Z,91.95
2022-11-24T01:38:26.324Z,90.38
2022-11-24T01:38:39.019Z,88.88
2022-11-24T01:38:51.999Z,86.47
2022-11-24T01:39:04.851Z,85.30
2022-11-24T01:39:18.608Z,87.15
2022-11-24T01:39:31.348Z,89.57
2022-11-24T01:39:44.066Z,90.15
2022-11-24T01:39:56.944Z,89.50
2022-11-24T01:40:11.218Z,90.55
2022-11-24T01:40:24.019Z,93.68
2022-11-24T01:40:36.743Z,96.80
2022-11-24T01:40:50.843Z,94.90
2022-11-24T01:41:06.412Z,92.28
2022-11-24T01:41:22.281Z,89.75
2022-11-24T01:41:36.025Z,89.35
2022-11-24T01:41:48.814Z,90.03
2022-11-24T01:42:01.943Z,90.18
2022-11-24T01:42:15.168Z,93.45
2022-11-24T01:42:37.749Z,92.68
2022-11-24T01:42:53.504Z,83.10
2022-11-24T01:43:17.290Z,84.47
2022-11-24T01:43:30.107Z,92.13
2022-11-24T01:43:44.666Z,93.30
2022-11-24T01:43:57.874Z,89.68
2022-11-24T01:44:22.559Z,84.32
2022-11-24T01:44:36.639Z,85.57
2022-11-24T01:45:12.393Z,87.22
2022-11-24T01:45:37.104Z,86.18
2022-11-24T01:45:51.132Z,84.35
2022-11-24T01:46:15.004Z,85.45
2022-11-24T01:46:32.604Z,82.82
2022-11-24T01:46:48.354Z,84.00
2022-11-24T01:47:06.196Z,86.80
2022-11-24T01:47:34.280Z,87.35
2022-11-24T01:47:48.101Z,87.22
2022-11-24T01:48:05.963Z,88.30
2022-11-24T01:48:27.274Z,88.75
2022-11-24T01:48:44.871Z,88.63
2022-11-24T01:49:04.909Z,87.35
2022-11-24T01:49:22.049Z,83.68
2022-11-24T01:49:39.840Z,84.38
2022-11-24T01:49:55.207Z,85.53
2022-11-24T01:50:16.714Z,84.40
2022-11-24T01:50:29.507Z,83.05
2022-11-24T01:50:44.609Z,84.05
2022-11-24T01:51:06.762Z,86.53
2022-11-24T01:51:24.571Z,87.80
2022-11-24T01:51:42.330Z,87.20
2022-11-24T01:52:00.804Z,83.40
2022-11-24T01:52:17.225Z,85.63
2022-11-24T01:52:35.224Z,86.28
2022-11-24T01:52:51.692Z,85.07
2022-11-24T01:53:05.215Z,86.97
2022-11-24T01:53:18.034Z,85.72
2022-11-24T01:53:32.108Z,83.90
2022-11-24T01:53:49.456Z,85.18
2022-11-24T01:54:08.073Z,87.55
2022-11-24T01:54:25.371Z,85.90
2022-11-24T01:54:41.658Z,85.95
2022-11-24T01:54:58.244Z,89.97
2022-11-24T01:55:18.389Z,94.05
2022-11-24T01:55:35.075Z,88.07
2022-11-24T01:55:48.272Z,88.03
2022-11-24T01:56:01.020Z,87.00
2022-11-24T01:56:14.460Z,83.82
2022-11-24T01:56:31.365Z,82.22
2022-11-24T01:56:49.005Z,85.25
2022-11-24T01:57:05.988Z,87.35
2022-11-24T01:57:25.123Z,86.85
2022-11-24T01:57:42.621Z,88.63
2022-11-24T01:58:00.060Z,88.72
2022-11-24T01:58:16.914Z,86.04
2022-11-24T01:58:34.143Z,88.18
2022-11-24T01:58:49.028Z,87.55
2022-11-24T01:59:04.079Z,90.05
2022-11-24T01:59:19.684Z,87.50
2022-11-24T01:59:33.227Z,87.85
2022-11-24T01:59:50.045Z,88.63
2022-11-24T02:00:06.943Z,81.35
2022-11-24T02:00:19.940Z,84.97
2022-11-24T02:00:34.832Z,88.22
2022-11-24T02:00:47.960Z,86.22
2022-11-24T02:01:00.964Z,83.15
2022-11-24T02:01:14.968Z,83.90
2022-11-24T02:01:29.403Z,87.18
2022-11-24T02:01:42.346Z,89.57
2022-11-24T02:01:57.022Z,90.80
2022-11-24T02:02:11.038Z,91.13
2022-11-24T02:02:24.771Z,90.57
2022-11-24T02:02:39.596Z,90.40
2022-11-24T02:02:53.694Z,90.88
2022-11-24T02:03:07.233Z,94.22
2022-11-24T02:03:24.193Z,94.68
2022-11-24T02:03:40.407Z,90.78
2022-11-24T02:03:53.586Z,88.07
2022-11-24T02:04:12.156Z,89.97
2022-11-24T02:04:29.551Z,88.57
2022-11-24T02:04:43.803Z,91.90
2022-11-24T02:04:59.129Z,92.50
2022-11-24T02:05:18.194Z,87.80
2022-11-24T02:05:35.647Z,92.95
2022-11-24T02:05:58.703Z,90.35
2022-11-24T02:06:14.431Z,88.63
2022-11-24T02:06:29.659Z,89.85
2022-11-24T02:06:45.476Z,90.28
2022-11-24T02:07:01.782Z,89.53
2022-11-24T02:07:16.381Z,84.97
2022-11-24T02:07:29.638Z,86.03
2022-11-24T02:07:42.570Z,89.80
2022-11-24T02:07:59.537Z,90.28
2022-11-24T02:08:19.613Z,88.03
2022-11-24T02:08:41.212Z,88.72
2022-11-24T02:08:59.983Z,86.63
2022-11-24T02:09:19.991Z,82.03
2022-11-24T02:09:37.782Z,83.93
2022-11-24T02:09:55.630Z,82.00
2022-11-24T02:10:13.027Z,83.75
2022-11-24T02:10:26.803Z,83.65
2022-11-24T02:10:39.722Z,82.30
2022-11-24T02:10:52.527Z,82.97
2022-11-24T02:11:06.046Z,85.05
2022-11-24T02:11:21.300Z,87.80
2022-11-24T02:11:38.645Z,86.60
2022-11-24T02:11:53.696Z,82.88
2022-11-24T02:12:07.189Z,79.38
2022-11-24T02:12:20.430Z,81.38
2022-11-24T02:12:34.003Z,83.10
2022-11-24T02:12:49.217Z,84.28
2022-11-24T02:13:03.229Z,86.75
2022-11-24T02:13:16.479Z,86.45
2022-11-24T02:13:29.580Z,85.78
2022-11-24T02:13:43.750Z,85.35
2022-11-24T02:13:57.890Z,85.22
2022-11-24T02:14:15.004Z,84.50
2022-11-24T02:14:28.316Z,81.13
2022-11-24T02:14:43.658Z,82.88
2022-11-24T02:14:56.991Z,83.70
2022-11-24T02:15:11.950Z,83.55
2022-11-24T02:15:25.470Z,82.28
2022-11-24T02:15:38.442Z,80.88
2022-11-24T02:15:54.379Z,81.40
2022-11-24T02:16:10.641Z,77.55
2022-11-24T02:16:23.927Z,76.05
2022-11-24T02:16:37.747Z,79.68
2022-11-24T02:16:51.742Z,79.78
2022-11-24T02:17:04.467Z,77.57
2022-11-24T02:17:18.271Z,76.82
2022-11-24T02:17:31.090Z,76.47
2022-11-24T02:17:44.238Z,79.28
2022-11-24T02:17:59.406Z,77.80
2022-11-24T02:18:12.266Z,76.65
2022-11-24T02:18:25.021Z,80.50
2022-11-24T02:18:38.911Z,81.45
2022-11-24T02:18:52.145Z,81.15
2022-11-24T02:19:14.107Z,81.82
2022-11-24T02:19:37.746Z,84.13
2022-11-24T02:19:55.880Z,82.28
2022-11-24T02:20:10.888Z,84.75
2022-11-24T02:20:23.722Z,83.32
2022-11-24T02:20:38.241Z,83.03
2022-11-24T02:20:51.184Z,85.80
2022-11-24T02:21:04.872Z,85.30
2022-11-24T02:21:18.294Z,83.82
2022-11-24T02:21:30.988Z,83.65
2022-11-24T02:21:43.734Z,81.68
2022-11-24T02:21:56.404Z,82.43
2022-11-24T02:22:14.536Z,84.15
2022-11-24T02:22:40.290Z,85.97
2022-11-24T02:23:00.628Z,80.93
2022-11-24T02:23:20.182Z,82.03
2022-11-24T02:23:44.170Z,83.45
2022-11-24T02:24:03.671Z,86.80
2022-11-24T02:24:24.349Z,87.72
2022-11-24T02:24:46.053Z,85.85
2022-11-24T02:25:06.846Z,87.93
2022-11-24T02:25:28.983Z,89.18
2022-11-24T02:25:50.592Z,87.20
2022-11-24T02:26:10.302Z,84.32
2022-11-24T02:26:34.560Z,88.60
2022-11-24T02:26:52.020Z,88.95
2022-11-24T02:27:04.662Z,85.40
2022-11-24T02:27:17.512Z,86.45
2022-11-24T02:27:30.854Z,86.10
2022-11-24T02:27:48.197Z,88.35
2022-11-24T02:28:08.653Z,85.75
2022-11-24T02:28:23.564Z,87.43
2022-11-24T02:28:37.449Z,88.97
2022-11-24T02:28:50.350Z,88.43
2022-11-24T02:29:03.118Z,89.43
2022-11-24T02:29:16.149Z,88.95
2022-11-24T02:29:28.780Z,91.72
2022-11-24T02:29:41.697Z,92.57
2022-11-24T02:29:55.330Z,88.93
2022-11-24T02:30:08.583Z,86.60
2022-11-24T02:30:21.229Z,86.65
2022-11-24T02:30:34.224Z,90.38
2022-11-24T02:30:47.787Z,87.63
2022-11-24T02:31:01.940Z,88.18
2022-11-24T02:31:14.662Z,90.13
2022-11-24T02:31:29.058Z,90.25
2022-11-24T02:31:47.607Z,88.72
2022-11-24T02:32:05.761Z,86.85
2022-11-24T02:32:19.984Z,85.40
2022-11-24T02:32:33.931Z,89.65
2022-11-24T02:32:46.795Z,89.63
2022-11-24T02:33:00.969Z,91.47
2022-11-24T02:33:14.117Z,95.32
2022-11-24T02:33:27.282Z,92.10
2022-11-24T02:33:40.891Z,93.07
2022-11-24T02:33:54.909Z,90.50
2022-11-24T02:34:07.537Z,88.70
2022-11-24T02:34:20.536Z,91.13
2022-11-24T02:34:33.453Z,91.88
2022-11-24T02:34:47.245Z,91.50
2022-11-24T02:35:01.438Z,91.15
2022-11-24T02:35:14.799Z,92.18
2022-11-24T02:35:28.219Z,92.26
2022-11-24T02:35:41.218Z,91.32
2022-11-24T02:35:53.899Z,88.88
2022-11-24T02:36:07.329Z,87.18
2022-11-24T02:36:20.927Z,87.10
2022-11-24T02:36:33.562Z,90.93
2022-11-24T02:36:46.149Z,95.65
2022-11-24T02:36:58.739Z,95.43
2022-11-24T02:37:11.707Z,92.50
2022-11-24T02:37:24.330Z,89.18
2022-11-24T02:37:36.869Z,87.32
2022-11-24T02:37:50.472Z,88.25
2022-11-24T02:38:03.164Z,89.50
2022-11-24T02:38:15.862Z,93.10
2022-11-24T02:38:31.447Z,93.03
2022-11-24T02:38:44.031Z,90.88
2022-11-24T02:38:56.643Z,86.93
2022-11-24T02:39:11.357Z,88.97
2022-11-24T02:39:24.939Z,93.28
2022-11-24T02:39:37.558Z,92.68
2022-11-24T02:39:50.146Z,91.75
2022-11-24T02:40:02.757Z,90.60
2022-11-24T02:40:16.565Z,91.03
2022-11-24T02:40:31.017Z,90.78
2022-11-24T02:40:47.969Z,89.88
2022-11-24T02:41:04.964Z,89.54
2022-11-24T02:41:20.295Z,89.53
2022-11-24T02:41:34.325Z,88.07
2022-11-24T02:41:52.280Z,86.55
2022-11-24T02:42:08.476Z,90.88
2022-11-24T02:42:21.545Z,92.05
2022-11-24T02:42:38.377Z,92.47
2022-11-24T02:42:54.853Z,94.55
2022-11-24T02:43:11.248Z,91.10
2022-11-24T02:43:24.379Z,90.32
2022-11-24T02:43:41.061Z,92.45
2022-11-24T02:43:57.496Z,89.63
2022-11-24T02:44:10.837Z,87.65
2022-11-24T02:44:27.391Z,90.13
2022-11-24T02:44:43.857Z,90.95
2022-11-24T02:45:00.515Z,90.03
2022-11-24T02:45:15.311Z,89.28
2022-11-24T02:45:29.707Z,91.93
2022-11-24T02:45:42.344Z,92.35
2022-11-24T02:45:55.010Z,92.60
2022-11-24T02:46:08.347Z,90.68
2022-11-24T02:46:21.482Z,89.65
2022-11-24T02:46:34.198Z,92.05
2022-11-24T02:46:47.813Z,91.50
2022-11-24T02:47:05.440Z,89.50
2022-11-24T02:47:18.061Z,90.13
2022-11-24T02:47:30.687Z,89.95
2022-11-24T02:47:43.285Z,91.80
2022-11-24T02:47:55.872Z,92.30
2022-11-24T02:48:08.663Z,90.03
2022-11-24T02:48:22.228Z,87.68
2022-11-24T02:48:34.861Z,87.00
2022-11-24T02:48:47.619Z,86.82
2022-11-24T02:49:00.243Z,88.97
2022-11-24T02:49:12.974Z,90.25
2022-11-24T02:49:25.561Z,92.25
2022-11-24T02:49:38.714Z,92.78
2022-11-24T02:49:51.304Z,91.05
2022-11-24T02:50:05.317Z,90.10
2022-11-24T02:50:18.001Z,90.05
2022-11-24T02:50:30.569Z,92.38
2022-11-24T02:50:43.582Z,90.25
2022-11-24T02:50:56.491Z,89.57
2022-11-24T02:51:09.435Z,91.43
2022-11-24T02:51:23.100Z,91.13
2022-11-24T02:51:35.687Z,90.30
2022-11-24T02:51:48.233Z,90.00
2022-11-24T02:52:01.016Z,89.20
2022-11-24T02:52:13.725Z,90.57
2022-11-24T02:52:26.395Z,89.35
2022-11-24T02:52:39.023Z,88.10
2022-11-24T02:52:52.640Z,89.03
2022-11-24T02:53:05.170Z,90.05
2022-11-24T02:53:17.858Z,92.53
2022-11-24T02:53:30.432Z,90.28
2022-11-24T02:53:43.040Z,88.07
2022-11-24T02:53:55.619Z,87.15
2022-11-24T02:54:09.202Z,86.70
2022-11-24T02:54:21.887Z,88.35
2022-11-24T02:54:35.065Z,88.63
2022-11-24T02:54:47.825Z,91.10
2022-11-24T02:55:00.449Z,94.03
2022-11-24T02:55:13.321Z,92.35
2022-11-24T02:55:26.291Z,88.88
2022-11-24T02:55:39.851Z,86.30
2022-11-24T02:55:53.153Z,83.30
2022-11-24T02:56:06.299Z,81.95
2022-11-24T02:56:18.899Z,85.43
2022-11-24T02:56:31.479Z,88.95
2022-11-24T02:56:45.445Z,87.60
2022-11-24T02:56:58.132Z,84.60
2022-11-24T02:57:12.150Z,84.70
2022-11-24T02:57:24.732Z,88.55
2022-11-24T02:57:37.332Z,90.22
2022-11-24T02:57:49.882Z,89.50
2022-11-24T02:58:02.641Z,88.25
2022-11-24T02:58:15.851Z,86.47
2022-11-24T02:58:29.489Z,89.40
2022-11-24T02:58:42.083Z,91.88
2022-11-24T02:58:54.691Z,94.65
2022-11-24T02:59:07.281Z,95.38
2022-11-24T02:59:20.169Z,90.13
2022-11-24T02:59:32.697Z,87.53
2022-11-24T02:59:46.635Z,90.30
2022-11-24T03:00:00.303Z,92.47
2022-11-24T03:00:13.691Z,89.50
2022-11-24T03:00:26.280Z,87.05
2022-11-24T03:00:38.913Z,87.10
2022-11-24T03:00:54.473Z,86.38
2022-11-24T03:01:07.257Z,91.03
2022-11-24T03:01:19.966Z,91.82
2022-11-24T03:01:33.604Z,88.72
2022-11-24T03:01:46.362Z,87.30
2022-11-24T03:01:59.170Z,90.53
2022-11-24T03:02:11.820Z,91.47
2022-11-24T03:02:24.487Z,92.15